Time;durP1;ratioP1;P1;durP2;ratioP2;P2;SDS_P1;SDS_P2;PMS_P1;PMS_P2;Temp;Humidity;BMP_temperature;BMP_pressure;BME280_temperature;BME280_humidity;BME280_pressure;Samples;Min_cycle;Max_cycle;Signal;HPM_P1;HPM_P2
2021/04/27 00:00:44;;;;;;;6.95;3.75;;;7.00;49.90;;;;;;5095666;28;20024;-36
2021/04/27 00:03:10;;;;;;;8.98;4.07;;;7.00;50.10;;;;;;5097027;28;20020;-36
2021/04/27 00:05:36;;;;;;;4.18;3.42;;;7.00;50.10;;;;;;5097229;28;20031;-36
2021/04/27 00:08:02;;;;;;;4.72;2.88;;;7.00;50.20;;;;;;5096749;28;20028;-37
2021/04/27 00:10:28;;;;;;;13.00;3.78;;;7.00;50.30;;;;;;5096816;28;20024;-36
2021/04/27 00:12:54;;;;;;;5.90;3.78;;;6.90;50.40;;;;;;5096758;28;20024;-37
2021/04/27 00:15:26;;;;;;;5.97;3.75;;;7.00;50.40;;;;;;5095446;28;20032;-36
2021/04/27 00:17:53;;;;;;;7.30;4.15;;;6.90;50.60;;;;;;5096565;28;20046;-36
2021/04/27 00:20:21;;;;;;;6.20;3.50;;;6.80;50.80;;;;;;5096800;28;20038;-36
2021/04/27 00:22:47;;;;;;;4.47;3.33;;;6.90;50.70;;;;;;5096473;28;20031;-36
2021/04/27 00:25:14;;;;;;;3.53;3.10;;;6.90;50.90;;;;;;5096536;28;20020;-36
2021/04/27 00:27:40;;;;;;;7.32;3.22;;;6.80;51.00;;;;;;5096350;28;20035;-36
2021/04/27 00:30:08;;;;;;;12.25;5.95;;;6.80;51.10;;;;;;5096375;28;20024;-37
2021/04/27 00:32:34;;;;;;;8.20;3.50;;;6.80;51.50;;;;;;5095304;28;20380;-36
2021/04/27 00:35:00;;;;;;;8.15;3.60;;;6.70;51.70;;;;;;5096207;28;20020;-36
2021/04/27 00:37:26;;;;;;;5.20;3.15;;;6.70;51.70;;;;;;5096648;28;20077;-36
2021/04/27 00:39:52;;;;;;;8.68;4.25;;;6.70;52.00;;;;;;5095167;28;20458;-36
2021/04/27 00:42:30;;;;;;;8.52;4.20;;;6.60;52.10;;;;;;5096355;28;20465;-36
2021/04/27 00:44:56;;;;;;;5.18;4.03;;;6.60;52.20;;;;;;5096117;28;20046;-36
2021/04/27 00:47:21;;;;;;;7.05;4.72;;;6.70;52.20;;;;;;5096039;28;20116;-36
2021/04/27 00:49:47;;;;;;;5.25;3.25;;;6.60;52.30;;;;;;5094637;28;20040;-35
2021/04/27 00:52:13;;;;;;;8.10;3.40;;;6.50;52.40;;;;;;5095858;28;20038;-36
2021/04/27 00:54:39;;;;;;;9.07;4.05;;;6.50;52.70;;;;;;5094547;28;20024;-36
2021/04/27 00:57:05;;;;;;;5.68;4.25;;;6.50;52.80;;;;;;5096117;28;20074;-36
2021/04/27 00:59:30;;;;;;;11.68;4.18;;;6.50;52.60;;;;;;5094469;28;20054;-36
2021/04/27 01:01:56;;;;;;;11.38;4.40;;;6.50;52.70;;;;;;5095707;28;20070;-36
2021/04/27 01:04:21;;;;;;;6.55;3.80;;;6.40;52.90;;;;;;5095763;28;20024;-36
2021/04/27 01:06:49;;;;;;;8.30;3.92;;;6.40;52.90;;;;;;5096040;28;20035;-36
2021/04/27 01:09:46;;;;;;;7.50;4.22;;;6.30;53.20;;;;;;5094414;28;20016;-36
2021/04/27 01:12:28;;;;;;;6.80;3.97;;;6.40;53.00;;;;;;5095603;28;20380;-36
2021/04/27 01:15:14;;;;;;;5.95;3.75;;;6.20;53.20;;;;;;5095796;28;20383;-36
2021/04/27 01:17:41;;;;;;;7.32;4.38;;;6.20;53.30;;;;;;5095795;28;20024;-36
2021/04/27 01:20:11;;;;;;;5.63;3.83;;;6.40;53.10;;;;;;5095377;28;20050;-36
2021/04/27 01:22:58;;;;;;;5.28;3.65;;;6.30;52.80;;;;;;5095702;28;20494;-36
2021/04/27 01:25:30;;;;;;;9.40;4.03;;;6.30;52.80;;;;;;5095497;28;20051;-36
2021/04/27 01:27:55;;;;;;;5.70;3.13;;;6.30;52.50;;;;;;5095121;28;20051;-36
2021/04/27 01:30:21;;;;;;;6.82;4.15;;;6.20;52.90;;;;;;5094088;28;20052;-36
2021/04/27 01:32:48;;;;;;;10.27;3.95;;;6.30;52.70;;;;;;5095622;28;20029;-36
2021/04/27 01:35:14;;;;;;;7.03;4.13;;;6.30;52.90;;;;;;5095574;28;20032;-36
2021/04/27 01:37:40;;;;;;;8.52;4.30;;;6.20;52.90;;;;;;5095176;28;20035;-36
2021/04/27 01:40:06;;;;;;;5.82;3.83;;;6.20;53.40;;;;;;5095102;28;20031;-36
2021/04/27 01:42:33;;;;;;;6.25;4.15;;;6.10;53.40;;;;;;5094043;28;20032;-36
2021/04/27 01:44:59;;;;;;;4.10;3.70;;;6.10;53.50;;;;;;5095651;28;20426;-37
2021/04/27 01:47:25;;;;;;;8.68;5.03;;;6.10;53.50;;;;;;5095363;28;20020;-37
2021/04/27 01:49:52;;;;;;;4.70;3.95;;;6.00;53.50;;;;;;5095634;28;20516;-37
2021/04/27 01:52:17;;;;;;;7.85;4.03;;;6.00;53.80;;;;;;5095526;28;20055;-37
2021/04/27 01:54:43;;;;;;;6.88;3.67;;;6.00;53.80;;;;;;5095397;28;20063;-36
2021/04/27 01:57:09;;;;;;;6.35;3.55;;;5.90;53.70;;;;;;5095566;28;20024;-38
2021/04/27 01:59:35;;;;;;;9.63;4.22;;;5.90;53.60;;;;;;5095090;28;20099;-37
2021/04/27 02:02:01;;;;;;;7.90;4.28;;;5.90;53.60;;;;;;5094861;28;20038;-36
2021/04/27 02:04:28;;;;;;;8.05;3.90;;;5.90;53.60;;;;;;5094794;28;20020;-36
2021/04/27 02:06:55;;;;;;;12.63;4.15;;;5.80;53.80;;;;;;5094594;28;20023;-37
2021/04/27 02:09:23;;;;;;;8.57;4.35;;;5.80;53.80;;;;;;5094470;28;20024;-37
2021/04/27 02:11:53;;;;;;;5.78;4.00;;;5.80;53.90;;;;;;5094737;28;20028;-37
2021/04/27 02:14:22;;;;;;;8.13;3.45;;;5.80;53.80;;;;;;5094436;28;20032;-37
2021/04/27 02:16:56;;;;;;;4.63;3.70;;;6.00;53.40;;;;;;5094284;28;20032;-36
2021/04/27 02:19:26;;;;;;;8.48;3.75;;;5.80;53.50;;;;;;5094844;28;20027;-37
2021/04/27 02:22:03;;;;;;;5.75;3.63;;;5.80;53.60;;;;;;5093927;28;20028;-36
2021/04/27 02:24:29;;;;;;;4.85;3.65;;;5.90;53.40;;;;;;5092918;28;20381;-36
2021/04/27 02:26:56;;;;;;;11.68;3.88;;;5.80;53.50;;;;;;5093988;28;20494;-36
2021/04/27 02:29:23;;;;;;;5.93;4.30;;;5.70;53.80;;;;;;5092769;28;20020;-36
2021/04/27 02:31:49;;;;;;;6.22;4.00;;;5.70;54.00;;;;;;5093993;28;20384;-36
2021/04/27 02:34:18;;;;;;;9.07;3.92;;;5.60;54.10;;;;;;5092646;28;20024;-36
2021/04/27 02:36:44;;;;;;;6.35;4.07;;;5.60;54.20;;;;;;5093984;28;20541;-36
2021/04/27 02:39:10;;;;;;;6.28;3.22;;;5.60;54.00;;;;;;5093855;28;20028;-36
2021/04/27 02:41:37;;;;;;;6.60;3.58;;;5.70;53.70;;;;;;5094023;28;20094;-36
2021/04/27 02:44:06;;;;;;;7.25;3.70;;;5.80;53.60;;;;;;5093819;28;20439;-36
2021/04/27 02:46:32;;;;;;;6.07;4.15;;;5.80;53.10;;;;;;5093792;28;20016;-36
2021/04/27 02:48:58;;;;;;;7.57;3.53;;;5.80;53.30;;;;;;5093621;28;20161;-36
2021/04/27 02:51:23;;;;;;;6.80;4.55;;;5.70;53.30;;;;;;5094063;28;20114;-36
2021/04/27 02:53:49;;;;;;;5.85;5.20;;;5.60;53.50;;;;;;5093970;28;20024;-36
2021/04/27 02:56:15;;;;;;;5.75;3.55;;;5.60;53.50;;;;;;5094124;28;20026;-36
2021/04/27 02:58:41;;;;;;;6.50;3.40;;;5.70;53.10;;;;;;5093770;28;20020;-36
2021/04/27 03:01:07;;;;;;;7.10;3.92;;;5.70;53.10;;;;;;5093868;28;20439;-36
2021/04/27 03:03:33;;;;;;;5.70;3.30;;;5.70;53.10;;;;;;5093776;28;20024;-36
2021/04/27 03:05:59;;;;;;;5.57;3.45;;;5.60;53.50;;;;;;5092191;28;20375;-36
2021/04/27 03:08:24;;;;;;;6.13;4.05;;;5.70;53.30;;;;;;5093549;28;20031;-36
2021/04/27 03:10:52;;;;;;;6.10;4.05;;;5.70;53.10;;;;;;5093437;28;20107;-36
2021/04/27 03:13:17;;;;;;;8.80;4.15;;;5.70;53.10;;;;;;5093341;28;20032;-36
2021/04/27 03:15:43;;;;;;;8.63;4.95;;;5.50;53.60;;;;;;5092112;28;20028;-36
2021/04/27 03:18:09;;;;;;;10.35;4.10;;;5.50;53.70;;;;;;5093608;28;20029;-36
2021/04/27 03:20:35;;;;;;;5.68;3.13;;;5.50;53.40;;;;;;5093342;28;20027;-36
2021/04/27 03:23:00;;;;;;;11.98;4.18;;;5.50;53.90;;;;;;5093406;28;20351;-36
2021/04/27 03:25:26;;;;;;;6.55;3.30;;;5.50;53.40;;;;;;5093299;28;20384;-36
2021/04/27 03:27:51;;;;;;;6.05;3.80;;;5.50;53.60;;;;;;5093232;28;20086;-36
2021/04/27 03:30:18;;;;;;;7.55;4.43;;;5.50;53.60;;;;;;5093656;28;20020;-36
2021/04/27 03:32:43;;;;;;;6.03;4.07;;;5.50;53.60;;;;;;5094281;28;20039;-36
2021/04/27 03:35:11;;;;;;;5.47;3.65;;;5.60;53.40;;;;;;5097549;28;20468;-36
2021/04/27 03:37:38;;;;;;;6.03;3.65;;;5.50;53.70;;;;;;5097310;28;20038;-36
2021/04/27 03:40:05;;;;;;;6.50;3.60;;;5.40;54.00;;;;;;5097327;28;20016;-36
2021/04/27 03:42:30;;;;;;;5.82;3.67;;;5.40;53.90;;;;;;5097300;28;20012;-35
2021/04/27 03:44:56;;;;;;;5.47;4.43;;;5.40;53.90;;;;;;5097279;28;20133;-36
2021/04/27 03:47:22;;;;;;;9.20;3.75;;;5.30;54.10;;;;;;5095868;28;20024;-36
2021/04/27 03:49:48;;;;;;;7.00;3.92;;;5.40;54.10;;;;;;5097183;28;20047;-36
2021/04/27 03:52:13;;;;;;;9.93;4.45;;;5.30;53.90;;;;;;5095884;28;20131;-36
2021/04/27 03:54:39;;;;;;;8.32;4.45;;;5.40;54.20;;;;;;5096961;28;20027;-36
2021/04/27 03:57:05;;;;;;;9.60;4.43;;;5.20;54.90;;;;;;5096939;28;20020;-36
2021/04/27 03:59:31;;;;;;;4.63;3.45;;;5.20;54.70;;;;;;5096893;28;20085;-36
2021/04/27 04:01:57;;;;;;;9.55;4.05;;;5.20;55.10;;;;;;5096819;28;20532;-36
2021/04/27 04:04:23;;;;;;;5.10;3.90;;;5.20;55.10;;;;;;5095576;28;20024;-35
2021/04/27 04:06:48;;;;;;;6.55;3.90;;;5.20;54.90;;;;;;5095599;28;20491;-36
2021/04/27 04:09:14;;;;;;;5.70;4.45;;;5.10;55.10;;;;;;5096761;28;20028;-36
2021/04/27 04:11:40;;;;;;;8.80;4.40;;;5.10;55.10;;;;;;5096809;28;20035;-36
2021/04/27 04:14:06;;;;;;;6.13;3.78;;;5.00;55.40;;;;;;5096713;28;20024;-36
2021/04/27 04:16:32;;;;;;;7.57;3.40;;;5.00;55.30;;;;;;5096934;28;20454;-36
2021/04/27 04:18:57;;;;;;;6.35;3.70;;;5.00;55.40;;;;;;5096768;28;20499;-36
2021/04/27 04:21:24;;;;;;;5.25;4.05;;;4.90;55.80;;;;;;5096784;28;20387;-36
2021/04/27 04:23:51;;;;;;;8.23;4.40;;;4.80;56.10;;;;;;5095240;28;20070;-36
2021/04/27 04:26:17;;;;;;;8.77;4.30;;;5.00;55.40;;;;;;5096463;28;20038;-35
2021/04/27 04:28:43;;;;;;;5.38;3.13;;;5.10;55.00;;;;;;5096686;28;20394;-35
2021/04/27 04:31:09;;;;;;;5.97;3.63;;;4.90;55.60;;;;;;5096904;28;20070;-36
2021/04/27 04:33:35;;;;;;;7.35;4.00;;;4.90;55.80;;;;;;5096233;28;20024;-36
2021/04/27 04:36:01;;;;;;;9.35;5.47;;;4.80;56.10;;;;;;5095932;28;20020;-36
2021/04/27 04:38:26;;;;;;;10.25;3.63;;;4.80;56.20;;;;;;5096207;28;20062;-35
2021/04/27 04:40:52;;;;;;;10.55;3.92;;;4.80;56.00;;;;;;5096094;28;20472;-35
2021/04/27 04:43:19;;;;;;;10.00;4.18;;;4.80;55.80;;;;;;5095941;28;20016;-35
2021/04/27 04:45:45;;;;;;;6.45;3.47;;;4.90;55.50;;;;;;5096045;28;20016;-35
2021/04/27 04:48:11;;;;;;;11.75;3.85;;;4.80;56.10;;;;;;5096026;28;20084;-36
2021/04/27 04:50:36;;;;;;;9.45;4.40;;;4.80;55.90;;;;;;5095795;28;20052;-36
2021/04/27 04:53:03;;;;;;;7.35;4.90;;;4.90;55.60;;;;;;5095944;28;20506;-36
2021/04/27 04:55:29;;;;;;;7.03;3.80;;;4.90;55.40;;;;;;5096013;28;20456;-36
2021/04/27 04:57:55;;;;;;;6.75;3.78;;;4.90;55.30;;;;;;5095792;28;20028;-36
2021/04/27 05:00:22;;;;;;;6.32;4.07;;;4.90;55.40;;;;;;5095926;28;20036;-36
2021/04/27 05:02:48;;;;;;;7.32;3.65;;;4.90;55.20;;;;;;5094519;28;20028;-36
2021/04/27 05:05:14;;;;;;;7.53;4.40;;;4.90;54.90;;;;;;5096231;28;20142;-36
2021/04/27 05:07:48;;;;;;;9.27;4.35;;;4.90;55.20;;;;;;5095821;28;20031;-35
2021/04/27 05:10:15;;;;;;;7.30;3.83;;;5.00;54.90;;;;;;5095625;28;20074;-36
2021/04/27 05:12:41;;;;;;;6.00;3.67;;;5.00;54.60;;;;;;5094652;28;20028;-36
2021/04/27 05:15:08;;;;;;;6.72;3.67;;;5.10;54.40;;;;;;5095573;28;20058;-36
2021/04/27 05:17:34;;;;;;;7.20;3.88;;;5.10;54.70;;;;;;5095510;28;20024;-36
2021/04/27 05:20:00;;;;;;;5.85;3.67;;;5.20;54.20;;;;;;5095401;28;20392;-36
2021/04/27 05:22:27;;;;;;;5.63;3.55;;;5.30;53.70;;;;;;5095350;28;20025;-36
2021/04/27 05:24:54;;;;;;;7.85;4.10;;;5.20;53.60;;;;;;5095712;28;20099;-36
2021/04/27 05:27:19;;;;;;;6.88;3.22;;;5.20;53.80;;;;;;5094095;28;20042;-35
2021/04/27 05:29:45;;;;;;;5.10;2.90;;;5.30;53.30;;;;;;5095216;28;20024;-35
2021/04/27 05:32:12;;;;;;;8.65;3.05;;;5.30;53.40;;;;;;5095416;28;20415;-35
2021/04/27 05:34:37;;;;;;;6.53;3.72;;;5.40;52.80;;;;;;5095120;28;20028;-35
2021/04/27 05:37:03;;;;;;;8.20;3.38;;;5.50;52.80;;;;;;5095055;28;20027;-35
2021/04/27 05:39:30;;;;;;;7.22;3.85;;;5.50;52.40;;;;;;5095523;28;20028;-35
2021/04/27 05:41:55;;;;;;;7.90;4.30;;;5.60;52.40;;;;;;5095008;28;20031;-35
2021/04/27 05:44:22;;;;;;;11.07;3.30;;;5.50;52.40;;;;;;5095333;28;20417;-36
2021/04/27 05:46:47;;;;;;;14.20;5.45;;;5.70;51.30;;;;;;5095231;28;20023;-35
2021/04/27 05:49:13;;;;;;;131.10;20.52;;;5.80;51.40;;;;;;5094500;28;20044;-35
2021/04/27 05:51:38;;;;;;;89.63;15.80;;;5.90;51.60;;;;;;5094338;28;20097;-35
2021/04/27 05:54:05;;;;;;;5.13;3.15;;;6.10;50.80;;;;;;5094301;28;20060;-35
2021/04/27 05:56:31;;;;;;;13.00;4.50;;;6.10;50.20;;;;;;5091952;28;20032;-36
2021/04/27 05:58:58;;;;;;;8.35;3.10;;;6.10;50.70;;;;;;5094562;28;20035;-36
2021/04/27 06:01:24;;;;;;;9.07;3.20;;;6.10;50.40;;;;;;5095246;28;20032;-35
2021/04/27 06:03:51;;;;;;;7.60;3.55;;;6.20;49.90;;;;;;5094751;28;20468;-36
2021/04/27 06:06:17;;;;;;;11.85;3.67;;;6.10;50.30;;;;;;5094930;28;20023;-36
2021/04/27 06:08:43;;;;;;;8.75;3.65;;;6.10;50.30;;;;;;5094449;28;20028;-36
2021/04/27 06:11:09;;;;;;;8.55;3.53;;;6.30;50.00;;;;;;5094395;28;20123;-36
2021/04/27 06:13:34;;;;;;;7.75;3.17;;;6.40;49.80;;;;;;5094334;28;20051;-36
2021/04/27 06:16:01;;;;;;;6.60;2.75;;;6.40;49.90;;;;;;5094129;28;20361;-35
2021/04/27 06:18:27;;;;;;;7.07;2.67;;;6.50;49.20;;;;;;5094192;28;20028;-37
2021/04/27 06:20:53;;;;;;;6.82;3.08;;;6.60;48.70;;;;;;5093603;28;20028;-37
2021/04/27 06:23:18;;;;;;;7.35;3.50;;;6.80;48.40;;;;;;5093916;28;20016;-36
2021/04/27 06:25:44;;;;;;;4.35;2.42;;;6.80;47.20;;;;;;5094025;28;20020;-36
2021/04/27 06:28:10;;;;;;;8.93;3.33;;;7.00;46.60;;;;;;5094706;28;20107;-36
2021/04/27 06:30:37;;;;;;;7.82;2.85;;;7.00;46.50;;;;;;5094064;28;20032;-36
2021/04/27 06:33:03;;;;;;;3.92;2.40;;;7.20;46.10;;;;;;5093763;28;20020;-36
2021/04/27 06:35:29;;;;;;;13.10;3.65;;;7.30;45.30;;;;;;5093831;28;20024;-37
2021/04/27 06:37:55;;;;;;;4.63;2.75;;;7.30;45.40;;;;;;5093750;28;20122;-36
2021/04/27 06:40:21;;;;;;;8.32;2.80;;;7.50;45.80;;;;;;5093696;28;20024;-37
2021/04/27 06:42:47;;;;;;;7.95;3.90;;;7.60;44.90;;;;;;5093644;28;20525;-36
2021/04/27 06:45:13;;;;;;;4.70;3.00;;;7.80;44.40;;;;;;5093853;28;20028;-37
2021/04/27 06:47:40;;;;;;;7.95;2.53;;;7.80;44.40;;;;;;5092360;28;20115;-37
2021/04/27 06:50:06;;;;;;;4.60;2.38;;;7.80;43.60;;;;;;5092247;28;20556;-36
2021/04/27 06:52:32;;;;;;;5.15;2.55;;;8.10;42.80;;;;;;5094242;28;20035;-36
2021/04/27 06:54:58;;;;;;;6.90;2.78;;;8.40;42.20;;;;;;5093574;28;20061;-36
2021/04/27 06:57:24;;;;;;;4.90;2.97;;;8.80;41.30;;;;;;5094325;28;20027;-42
2021/04/27 06:59:50;;;;;;;6.38;2.80;;;8.80;41.00;;;;;;5093812;28;20051;-37
2021/04/27 07:02:16;;;;;;;10.65;2.47;;;8.90;40.20;;;;;;5093842;28;20052;-36
2021/04/27 07:04:41;;;;;;;5.57;3.28;;;8.80;40.70;;;;;;5093746;28;20028;-36
2021/04/27 07:07:08;;;;;;;8.93;2.60;;;8.70;40.90;;;;;;5092453;28;20508;-37
2021/04/27 07:09:34;;;;;;;4.63;1.75;;;8.80;40.60;;;;;;5092305;28;20028;-37
2021/04/27 07:12:00;;;;;;;6.53;2.45;;;8.80;40.70;;;;;;5092188;28;20032;-38
2021/04/27 07:14:26;;;;;;;6.95;1.80;;;9.00;39.90;;;;;;5092071;28;20020;-36
2021/04/27 07:16:52;;;;;;;4.82;3.15;;;9.00;39.40;;;;;;5093416;28;20024;-37
2021/04/27 07:19:17;;;;;;;6.45;2.00;;;9.20;38.70;;;;;;5093648;28;20031;-38
2021/04/27 07:21:43;;;;;;;3.53;1.77;;;9.30;38.60;;;;;;5093161;28;20463;-37
2021/04/27 07:24:10;;;;;;;7.00;2.10;;;9.40;38.50;;;;;;5093302;28;20035;-37
2021/04/27 07:26:37;;;;;;;3.95;2.05;;;9.50;37.70;;;;;;5093126;28;20066;-38
2021/04/27 07:29:03;;;;;;;5.82;2.42;;;9.50;37.80;;;;;;5093455;28;20471;-38
2021/04/27 07:31:29;;;;;;;3.90;2.17;;;9.70;37.40;;;;;;5093186;28;20024;-37
2021/04/27 07:33:55;;;;;;;3.85;2.58;;;9.80;36.70;;;;;;5093487;28;20040;-36
2021/04/27 07:36:21;;;;;;;4.63;2.00;;;9.90;36.50;;;;;;5093150;28;20039;-36
2021/04/27 07:38:47;;;;;;;2.63;1.88;;;10.00;36.40;;;;;;5093453;28;20376;-36
2021/04/27 07:41:13;;;;;;;6.97;2.40;;;10.20;35.90;;;;;;5093145;28;20039;-37
2021/04/27 07:43:39;;;;;;;4.47;1.80;;;10.40;35.70;;;;;;5093290;28;20031;-38
2021/04/27 07:46:04;;;;;;;5.28;2.53;;;10.00;35.90;;;;;;5093243;28;20055;-38
2021/04/27 07:48:30;;;;;;;6.07;1.83;;;10.20;35.60;;;;;;5093108;28;20410;-37
2021/04/27 07:50:57;;;;;;;10.27;2.28;;;10.10;35.90;;;;;;5093603;28;20028;-46
2021/04/27 07:53:23;;;;;;;6.97;1.67;;;10.40;35.80;;;;;;5092531;28;20020;-38
2021/04/27 07:55:49;;;;;;;4.05;1.95;;;10.80;34.70;;;;;;5093231;28;20032;-37
2021/04/27 07:58:15;;;;;;;7.05;2.25;;;11.20;33.70;;;;;;5093600;28;20046;-36
2021/04/27 08:00:41;;;;;;;5.82;1.80;;;11.30;32.50;;;;;;5091433;28;20111;-37
2021/04/27 08:03:07;;;;;;;10.02;2.42;;;11.10;33.90;;;;;;5092809;28;20527;-36
2021/04/27 08:05:33;;;;;;;5.47;1.60;;;11.50;33.30;;;;;;5093021;28;20067;-37
2021/04/27 08:07:58;;;;;;;2.28;1.83;;;11.30;33.60;;;;;;5091629;28;20063;-37
2021/04/27 08:10:25;;;;;;;8.98;2.10;;;11.60;32.40;;;;;;5091463;28;20024;-39
2021/04/27 08:12:52;;;;;;;5.22;2.28;;;12.30;32.10;;;;;;5093008;28;20110;-36
2021/04/27 08:15:27;;;;;;;3.50;2.50;;;12.30;31.50;;;;;;5092873;28;20457;-36
2021/04/27 08:17:54;;;;;;;10.45;2.28;;;11.90;32.20;;;;;;5092806;28;20028;-36
2021/04/27 08:20:20;;;;;;;8.20;2.17;;;12.30;31.50;;;;;;5096537;28;20087;-37
2021/04/27 08:22:47;;;;;;;4.03;1.83;;;12.30;31.90;;;;;;5096706;28;20026;-37
2021/04/27 08:25:14;;;;;;;7.55;2.20;;;12.30;31.60;;;;;;5096596;28;20027;-37
2021/04/27 08:27:43;;;;;;;5.97;2.72;;;12.10;32.10;;;;;;5096492;28;20032;-36
2021/04/27 08:30:10;;;;;;;4.05;1.90;;;12.30;32.00;;;;;;5096621;28;20034;-36
2021/04/27 08:32:36;;;;;;;8.20;2.33;;;12.80;30.60;;;;;;5096445;28;20079;-36
2021/04/27 08:35:03;;;;;;;12.18;2.25;;;13.30;29.90;;;;;;5096531;28;20233;-37
2021/04/27 08:37:29;;;;;;;3.25;1.75;;;12.80;30.30;;;;;;5095316;28;20028;-37
2021/04/27 08:39:55;;;;;;;2.50;2.00;;;12.50;30.70;;;;;;5096222;28;20016;-37
2021/04/27 08:42:21;;;;;;;5.10;1.75;;;12.90;30.60;;;;;;5096453;28;20107;-37
2021/04/27 08:44:46;;;;;;;3.30;2.03;;;13.20;30.00;;;;;;5096112;28;20046;-36
2021/04/27 08:47:12;;;;;;;1.98;1.55;;;13.40;29.50;;;;;;5096079;28;20032;-38
2021/04/27 08:49:38;;;;;;;8.18;2.22;;;13.40;29.40;;;;;;5095862;28;20052;-38
2021/04/27 08:52:05;;;;;;;4.85;2.28;;;13.60;29.40;;;;;;5095883;28;20028;-38
2021/04/27 08:54:31;;;;;;;6.35;2.25;;;13.40;29.40;;;;;;5095907;28;20099;-38
2021/04/27 08:56:57;;;;;;;3.20;2.55;;;13.60;30.00;;;;;;5096102;28;20024;-37
2021/04/27 08:59:23;;;;;;;3.83;1.83;;;13.70;28.90;;;;;;5096084;28;20042;-38
2021/04/27 09:01:48;;;;;;;6.93;1.80;;;13.70;28.60;;;;;;5096320;28;20031;-37
2021/04/27 09:04:44;;;;;;;5.13;2.10;;;13.30;29.30;;;;;;5096118;28;20433;-36
2021/04/27 09:07:14;;;;;;;6.68;1.70;;;13.80;28.70;;;;;;5095791;28;20028;-37
2021/04/27 09:09:43;;;;;;;5.07;2.20;;;14.00;28.50;;;;;;5095871;28;20028;-37
2021/04/27 09:12:10;;;;;;;5.95;2.17;;;13.80;29.30;;;;;;5095523;28;20028;-38
2021/04/27 09:14:38;;;;;;;6.57;1.92;;;14.40;28.00;;;;;;5095519;28;20056;-38
2021/04/27 09:17:07;;;;;;;5.35;1.88;;;14.80;27.70;;;;;;5095345;28;20487;-37
2021/04/27 09:19:32;;;;;;;6.55;2.05;;;15.30;25.70;;;;;;5095607;28;20115;-36
2021/04/27 09:22:16;;;;;;;6.55;2.58;;;15.00;27.00;;;;;;5095381;28;20473;-37
2021/04/27 09:24:48;;;;;;;8.63;2.22;;;16.00;25.70;;;;;;5094955;28;20128;-36
2021/04/27 09:27:33;;;;;;;2.35;1.98;;;15.60;26.20;;;;;;5095173;28;20016;-37
2021/04/27 09:30:19;;;;;;;6.68;2.40;;;15.40;25.90;;;;;;5093939;28;20024;-37
2021/04/27 09:32:55;;;;;;;9.32;2.40;;;15.30;26.20;;;;;;5094950;28;20020;-37
2021/04/27 09:35:27;;;;;;;3.08;2.28;;;16.20;25.40;;;;;;5095234;28;20024;-37
2021/04/27 09:38:18;;;;;;;5.45;2.33;;;16.10;25.60;;;;;;5095252;28;20501;-42
2021/04/27 09:40:44;;;;;;;5.20;2.45;;;16.60;24.90;;;;;;5094937;28;20463;-36
2021/04/27 09:43:10;;;;;;;3.55;2.55;;;16.30;25.50;;;;;;5094871;28;20062;-37
2021/04/27 09:45:46;;;;;;;5.00;2.70;;;16.80;24.70;;;;;;5093698;28;20465;-37
2021/04/27 09:48:14;;;;;;;5.68;2.30;;;17.10;23.80;;;;;;5095240;28;20026;-38
2021/04/27 09:50:41;;;;;;;3.40;2.17;;;16.70;23.90;;;;;;5076576;28;20044;-37
2021/04/27 09:53:07;;;;;;;3.65;2.67;;;15.60;25.80;;;;;;5095252;28;20036;-38
2021/04/27 09:55:34;;;;;;;8.38;2.65;;;15.80;25.40;;;;;;5094020;28;20097;-38
2021/04/27 09:58:02;;;;;;;5.10;2.13;;;16.50;25.00;;;;;;5094652;28;20054;-37
2021/04/27 10:00:39;;;;;;;3.08;2.25;;;16.50;24.30;;;;;;5093236;28;20024;-37
2021/04/27 10:03:10;;;;;;;10.07;4.07;;;16.50;24.40;;;;;;5094402;28;20475;-37
2021/04/27 10:05:37;;;;;;;4.50;2.00;;;17.00;23.90;;;;;;5095058;28;20089;-37
2021/04/27 10:08:04;;;;;;;4.63;2.15;;;18.00;22.30;;;;;;5094609;28;20020;-37
2021/04/27 10:10:32;;;;;;;3.10;1.88;;;17.10;22.70;;;;;;5094759;28;20024;-36
2021/04/27 10:12:59;;;;;;;5.97;2.35;;;16.30;23.40;;;;;;5093045;28;20028;-37
2021/04/27 10:15:26;;;;;;;6.63;2.30;;;17.10;22.60;;;;;;5094116;28;20047;-37
2021/04/27 10:17:52;;;;;;;5.60;2.45;;;17.30;22.90;;;;;;5093861;28;20032;-36
2021/04/27 10:20:18;;;;;;;5.20;2.20;;;17.70;22.30;;;;;;5094476;28;20468;-37
2021/04/27 10:22:46;;;;;;;4.93;2.50;;;17.10;22.90;;;;;;5092586;28;20094;-38
2021/04/27 10:25:14;;;;;;;5.05;2.58;;;16.70;23.50;;;;;;5093881;28;20031;-37
2021/04/27 10:27:40;;;;;;;4.18;2.25;;;17.60;22.70;;;;;;5094136;28;20031;-36
2021/04/27 10:30:18;;;;;;;3.70;2.00;;;18.10;22.10;;;;;;5094433;28;20350;-37
2021/04/27 10:33:02;;;;;;;8.57;2.55;;;17.50;22.90;;;;;;5093848;28;20498;-37
2021/04/27 10:35:32;;;;;;;7.57;2.67;;;16.30;23.60;;;;;;5092599;28;20028;-37
2021/04/27 10:38:12;;;;;;;4.57;2.30;;;16.60;24.40;;;;;;5094160;28;20096;-37
2021/04/27 10:40:40;;;;;;;7.97;2.60;;;17.50;23.30;;;;;;5094063;28;20063;-36
2021/04/27 10:43:25;;;;;;;3.33;2.25;;;16.50;24.40;;;;;;5093712;28;20031;-38
2021/04/27 10:45:55;;;;;;;4.10;2.83;;;16.80;23.70;;;;;;5093881;28;20069;-37
2021/04/27 10:48:45;;;;;;;6.43;2.20;;;16.50;23.90;;;;;;5093985;28;20051;-36
2021/04/27 10:51:23;;;;;;;4.30;1.92;;;17.40;23.60;;;;;;5073831;28;20068;-37
2021/04/27 10:54:04;;;;;;;3.42;2.38;;;17.30;23.20;;;;;;5074022;28;20028;-37
2021/04/27 10:56:49;;;;;;;5.88;2.25;;;17.80;22.90;;;;;;5073164;28;20032;-37
2021/04/27 10:59:22;;;;;;;7.15;3.28;;;17.90;22.50;;;;;;5073168;28;20112;-36
2021/04/27 11:02:08;;;;;;;3.95;2.33;;;17.30;22.40;;;;;;5072978;28;20086;-36
2021/04/27 11:04:42;;;;;;;3.42;2.63;;;17.10;22.80;;;;;;5072453;28;20020;-36
2021/04/27 11:07:24;;;;;;;6.13;2.75;;;17.50;23.20;;;;;;5072263;28;20086;-37
2021/04/27 11:10:05;;;;;;;5.20;2.50;;;17.30;23.40;;;;;;5073493;28;20016;-37
2021/04/27 11:12:30;;;;;;;;;;;18.30;21.60;;;;;;5073601;28;20032;-37
2021/04/27 11:15:07;;;;;;;5.50;2.33;;;18.30;21.60;;;;;;5073053;28;19949;-37
2021/04/27 11:17:41;;;;;;;4.45;2.72;;;17.40;22.90;;;;;;5071795;28;20063;-36
2021/04/27 11:20:09;;;;;;;15.40;3.40;;;16.80;23.30;;;;;;5072599;28;20032;-38
2021/04/27 11:22:49;;;;;;;6.05;3.38;;;15.80;24.70;;;;;;5072720;28;20028;-36
2021/04/27 11:25:32;;;;;;;7.22;2.80;;;16.10;24.20;;;;;;5072931;28;20418;-36
2021/04/27 11:27:58;;;;;;;2.78;2.28;;;16.70;23.50;;;;;;5071487;28;20071;-36
2021/04/27 11:30:33;;;;;;;5.40;2.67;;;16.70;23.30;;;;;;5072957;28;20055;-36
2021/04/27 11:33:06;;;;;;;3.53;2.33;;;17.10;23.10;;;;;;5072966;28;20583;-37
2021/04/27 11:35:42;;;;;;;8.75;2.25;;;16.90;22.70;;;;;;5073236;28;20028;-37
2021/04/27 11:38:09;;;;;;;3.30;2.08;;;16.80;22.70;;;;;;5073244;28;20078;-37
2021/04/27 11:40:36;;;;;;;4.55;3.20;;;16.80;22.60;;;;;;5072787;28;20032;-36
2021/04/27 11:43:06;;;;;;;2.25;2.05;;;17.20;22.80;;;;;;5072739;28;20028;-38
2021/04/27 11:45:51;;;;;;;5.23;2.53;;;17.30;22.10;;;;;;5072270;28;20461;-37
2021/04/27 11:48:19;;;;;;;9.32;2.63;;;17.30;22.90;;;;;;5071298;28;20480;-36
2021/04/27 11:50:45;;;;;;;2.00;1.80;;;17.10;22.60;;;;;;5092083;28;20515;-36
2021/04/27 11:53:16;;;;;;;6.57;2.00;;;17.10;23.00;;;;;;5093676;28;20030;-37
2021/04/27 11:55:52;;;;;;;4.97;1.95;;;17.60;21.50;;;;;;5096966;28;20024;-36
2021/04/27 11:58:22;;;;;;;5.90;2.13;;;19.10;19.90;;;;;;5097724;28;20028;-38
2021/04/27 12:01:01;;;;;;;2.70;1.83;;;19.10;20.10;;;;;;5096031;28;20035;-37
2021/04/27 12:03:34;;;;;;;2.28;1.60;;;17.80;21.10;;;;;;5097166;28;20024;-37
2021/04/27 12:06:06;;;;;;;4.22;1.80;;;18.10;21.00;;;;;;5095258;28;20020;-36
2021/04/27 12:08:34;;;;;;;2.85;2.55;;;17.40;21.00;;;;;;5095797;28;20024;-37
2021/04/27 12:11:30;;;;;;;5.82;2.63;;;18.10;20.50;;;;;;5098018;28;20380;-39
2021/04/27 12:13:55;;;;;;;6.32;2.17;;;18.30;19.90;;;;;;5096862;28;20484;-37
2021/04/27 12:16:26;;;;;;;5.28;3.42;;;16.80;22.00;;;;;;5096236;28;20051;-36
2021/04/27 12:18:52;;;;;;;8.05;2.42;;;16.50;22.60;;;;;;5096688;28;20487;-37
2021/04/27 12:21:50;;;;;;;3.22;2.45;;;18.00;21.10;;;;;;5096376;28;20028;-37
2021/04/27 12:24:22;;;;;;;2.17;1.40;;;18.30;20.60;;;;;;5096529;28;20469;-36
2021/04/27 12:26:55;;;;;;;4.18;2.17;;;18.00;20.90;;;;;;5096200;28;20051;-36
2021/04/27 12:32:28;;;;;;;4.95;1.65;;;18.40;20.10;;;;;;5095560;28;20076;-37
2021/04/27 12:34:59;;;;;;;3.92;1.88;;;18.30;20.20;;;;;;5094518;28;20024;-37
2021/04/27 12:37:27;;;;;;;5.40;2.10;;;18.50;19.90;;;;;;5096348;28;20423;-37
2021/04/27 12:39:53;;;;;;;3.38;2.08;;;19.40;20.00;;;;;;5095976;28;20491;-37
2021/04/27 12:42:29;;;;;;;4.97;2.17;;;19.60;19.00;;;;;;5095612;28;20027;-37
2021/04/27 12:45:08;;;;;;;4.20;1.90;;;19.20;20.00;;;;;;5096159;28;20054;-37
2021/04/27 12:47:35;;;;;;;3.72;1.77;;;19.60;19.30;;;;;;5096383;28;20026;-37
2021/04/27 12:50:08;;;;;;;5.82;2.15;;;19.60;19.30;;;;;;5095343;28;20048;-37
2021/04/27 12:52:39;;;;;;;3.25;1.60;;;18.80;20.40;;;;;;5095014;28;20053;-37
2021/04/27 12:55:09;;;;;;;2.42;1.88;;;19.50;20.00;;;;;;5094918;28;20095;-37
2021/04/27 12:57:35;;;;;;;;;;;18.80;20.10;;;;;;5095963;28;20379;-37
2021/04/27 13:00:07;;;;;;;10.32;3.28;;;18.70;20.70;;;;;;5095773;28;19910;-37
2021/04/27 13:02:33;;;;;;;2.65;1.27;;;18.30;20.70;;;;;;5095017;28;20020;-37